Time;durP1;ratioP1;P1;durP2;ratioP2;P2;SDS_P1;SDS_P2;PMS_P1;PMS_P2;Temp;Humidity;BMP_temperature;BMP_pressure;BME280_temperature;BME280_humidity;BME280_pressure;Samples;Min_cycle;Max_cycle;Signal;HPM_P1;HPM_P2
2023/05/09 00:02:16;;;;;;;16.85;5.22;;;;;;;10.74;29.56;100853.78;5039723;28;20140;-71
2023/05/09 00:04:42;;;;;;;8.52;4.72;;;;;;;10.60;29.75;100851.44;5023324;28;20067;-71
2023/05/09 00:07:09;;;;;;;17.02;4.95;;;;;;;10.56;29.88;100850.03;5039896;28;20105;-70
2023/05/09 00:09:35;;;;;;;15.27;5.00;;;;;;;10.50;30.29;100841.72;5040046;28;20051;-72
2023/05/09 00:12:01;;;;;;;12.13;4.63;;;;;;;10.54;30.31;100851.09;5057419;28;20040;-71
2023/05/09 00:14:27;;;;;;;14.25;5.20;;;;;;;10.47;30.42;100850.78;5041227;28;20067;-71
2023/05/09 00:16:54;;;;;;;15.85;5.85;;;;;;;10.58;30.70;100852.56;5041998;28;20032;-72
2023/05/09 00:19:20;;;;;;;14.65;5.85;;;;;;;10.36;31.34;100858.81;5042051;28;20101;-71
2023/05/09 00:21:45;;;;;;;16.73;5.50;;;;;;;10.29;31.29;100857.63;5041785;28;20378;-72
2023/05/09 00:24:11;;;;;;;14.48;5.30;;;;;;;10.24;31.38;100860.66;5041628;28;20044;-71
2023/05/09 00:26:37;;;;;;;12.18;5.05;;;;;;;10.37;31.36;100856.97;5058160;28;20063;-71
2023/05/09 00:29:03;;;;;;;12.75;5.85;;;;;;;10.18;31.25;100861.16;5041645;28;20181;-71
2023/05/09 00:31:30;;;;;;;16.52;5.10;;;;;;;10.17;31.42;100853.31;5041858;28;20139;-71
2023/05/09 00:33:56;;;;;;;16.80;6.13;;;;;;;10.12;31.62;100855.50;5041865;28;20144;-71
2023/05/09 00:36:23;;;;;;;12.30;6.00;;;;;;;10.35;31.69;100854.44;5041610;28;20495;-72
2023/05/09 00:38:50;;;;;;;13.43;5.55;;;;;;;10.22;31.87;100857.25;5041462;28;20109;-71
2023/05/09 00:41:15;;;;;;;19.80;6.13;;;;;;;10.05;31.51;100857.81;5041503;28;20039;-71
2023/05/09 00:43:42;;;;;;;12.30;5.13;;;;;;;10.18;31.65;100853.19;5039793;28;20100;-72
2023/05/09 00:46:08;;;;;;;13.45;5.07;;;;;;;10.08;31.70;100854.94;5040587;28;20056;-72
2023/05/09 00:48:35;;;;;;;12.73;5.30;;;;;;;10.10;31.61;100854.81;5040192;28;20224;-71
2023/05/09 00:51:01;;;;;;;11.25;5.00;;;;;;;10.32;31.74;100860.00;5040163;28;20811;-72
2023/05/09 00:53:27;;;;;;;13.98;5.38;;;;;;;10.14;31.55;100854.44;5040071;28;20521;-71
2023/05/09 00:55:54;;;;;;;14.85;5.50;;;;;;;10.35;31.39;100857.09;5023762;28;20040;-70
2023/05/09 00:58:21;;;;;;;12.38;5.72;;;;;;;10.09;31.52;100859.25;5056908;28;20059;-70
2023/05/09 01:00:46;;;;;;;20.67;6.43;;;;;;;10.12;31.86;100855.50;5040024;28;20039;-71
2023/05/09 01:03:13;;;;;;;14.20;5.25;;;;;;;10.14;31.68;100864.19;5040291;28;20087;-71
2023/05/09 01:05:56;;;;;;;13.05;5.20;;;;;;;10.49;31.61;100854.16;5023774;28;20162;-72
2023/05/09 01:08:47;;;;;;;16.33;5.40;;;;;;;10.62;31.38;100859.28;5056587;28;20036;-72
2023/05/09 01:11:45;;;;;;;11.85;4.93;;;;;;;10.58;31.65;100863.19;5056810;28;20536;-72
2023/05/09 01:14:37;;;;;;;15.20;5.03;;;;;;;10.56;31.80;100858.00;5006068;28;20040;-70
2023/05/09 01:17:16;;;;;;;12.27;5.45;;;;;;;10.13;31.73;100858.03;5053044;28;20198;-70
2023/05/09 01:20:26;;;;;;;11.23;4.75;;;;;;;10.59;31.93;100849.78;5053306;28;20040;-70
2023/05/09 01:23:34;;;;;;;10.73;5.60;;;;;;;10.53;32.07;100860.06;4958262;28;20093;-72
2023/05/09 01:26:04;;;;;;;13.35;5.45;;;;;;;10.40;32.06;100857.56;4960796;28;20124;-72
2023/05/09 01:28:30;;;;;;;17.80;5.38;;;;;;;10.07;32.06;100852.41;4930311;28;20193;-72
2023/05/09 01:30:58;;;;;;;10.60;5.38;;;;;;;10.05;32.22;100854.28;4977847;28;20149;-72
2023/05/09 01:33:26;;;;;;;17.25;5.50;;;;;;;10.27;31.82;100856.91;4977584;28;20113;-72
2023/05/09 01:35:57;;;;;;;15.27;5.57;;;;;;;10.39;31.91;100860.34;5007472;28;20515;-72
2023/05/09 01:38:22;;;;;;;;;;;;;;;10.69;31.24;100857.78;5007939;28;20510;-72
2023/05/09 01:40:53;;;;;;;9.13;4.63;;;;;;;10.43;31.46;100854.66;5023813;28;19920;-72
2023/05/09 01:43:20;;;;;;;14.00;4.90;;;;;;;10.40;31.39;100854.06;5023716;28;20044;-72
2023/05/09 01:45:49;;;;;;;12.68;5.13;;;;;;;10.27;31.26;100869.34;5035377;28;20063;-71
2023/05/09 01:48:15;;;;;;;14.48;5.78;;;;;;;10.33;31.47;100863.53;5044639;28;20040;-70
2023/05/09 01:50:42;;;;;;;9.90;4.88;;;;;;;10.36;31.47;100858.81;5044693;28;20044;-71
2023/05/09 01:53:09;;;;;;;8.10;4.40;;;;;;;10.44;31.21;100864.31;5077848;28;20351;-72
2023/05/09 01:55:36;;;;;;;11.23;5.30;;;;;;;10.50;31.25;100862.97;5044394;28;20379;-71
2023/05/09 01:58:04;;;;;;;12.15;5.10;;;;;;;10.48;31.29;100859.59;5044288;28;20073;-72
2023/05/09 02:00:31;;;;;;;12.70;4.68;;;;;;;10.53;31.64;100855.59;5044662;28;20051;-71
2023/05/09 02:02:59;;;;;;;13.38;5.18;;;;;;;10.51;31.53;100854.88;5060885;28;20040;-72
2023/05/09 02:05:27;;;;;;;14.32;5.65;;;;;;;10.69;31.59;100863.09;5044590;28;20178;-72
2023/05/09 02:07:57;;;;;;;9.48;5.28;;;;;;;10.59;31.47;100862.19;5044195;28;20549;-72
2023/05/09 02:10:24;;;;;;;10.63;5.18;;;;;;;10.65;31.29;100867.84;5044772;28;20047;-72
2023/05/09 02:12:52;;;;;;;13.18;5.32;;;;;;;10.76;31.08;100858.97;5060831;28;20052;-71
2023/05/09 02:15:18;;;;;;;16.33;5.45;;;;;;;10.57;31.12;100866.78;5060868;28;20101;-71
2023/05/09 02:17:45;;;;;;;13.10;5.60;;;;;;;10.63;31.33;100858.28;5060837;28;20142;-71
2023/05/09 02:20:12;;;;;;;11.68;5.45;;;;;;;10.55;31.29;100866.09;5061200;28;20043;-72
2023/05/09 02:22:42;;;;;;;20.92;6.47;;;;;;;10.84;31.21;100856.50;5044050;28;20134;-70
2023/05/09 02:25:09;;;;;;;15.07;4.70;;;;;;;10.77;31.24;100873.94;5043446;28;20099;-71
2023/05/09 02:27:37;;;;;;;14.02;5.40;;;;;;;10.82;31.19;100872.59;5060370;28;20282;-70
2023/05/09 02:30:07;;;;;;;10.55;4.72;;;;;;;10.92;31.00;100872.63;5043567;28;20040;-72
2023/05/09 02:32:36;;;;;;;10.88;5.35;;;;;;;10.88;31.09;100866.75;5060603;28;20529;-71
2023/05/09 02:35:05;;;;;;;15.93;5.18;;;;;;;10.99;31.15;100868.50;5043413;28;20079;-71
2023/05/09 02:37:32;;;;;;;17.23;5.88;;;;;;;10.88;31.11;100868.56;5043073;28;20040;-71
2023/05/09 02:40:00;;;;;;;18.73;5.63;;;;;;;10.90;31.24;100866.63;5043711;28;20390;-71
2023/05/09 02:42:33;;;;;;;12.95;5.55;;;;;;;11.02;31.26;100860.25;5077566;28;20476;-72
2023/05/09 02:45:01;;;;;;;14.25;5.63;;;;;;;10.77;31.20;100876.59;5027365;28;20213;-72
2023/05/09 02:47:27;;;;;;;15.25;6.55;;;;;;;10.77;31.35;100876.59;5076575;28;20040;-71
2023/05/09 02:49:54;;;;;;;17.92;6.38;;;;;;;10.79;31.63;100874.66;5043533;28;20138;-71
2023/05/09 02:52:20;;;;;;;19.40;6.47;;;;;;;10.83;31.63;100878.72;5043104;28;20104;-71
2023/05/09 02:54:47;;;;;;;13.73;6.15;;;;;;;11.09;31.90;100872.03;5043247;28;20682;-71
2023/05/09 02:57:14;;;;;;;14.55;6.05;;;;;;;10.91;31.93;100874.47;5002678;28;20080;-71
2023/05/09 02:59:40;;;;;;;20.25;6.63;;;;;;;10.89;32.15;100878.22;4986140;28;20095;-72
2023/05/09 03:02:07;;;;;;;16.98;6.43;;;;;;;10.85;31.89;100866.16;4989384;28;20057;-72
2023/05/09 03:04:33;;;;;;;14.10;6.32;;;;;;;10.94;31.84;100881.31;5015436;28;20051;-72
2023/05/09 03:06:59;;;;;;;18.15;6.82;;;;;;;11.00;31.59;100875.47;4982623;28;20376;-72
2023/05/09 03:09:30;;;;;;;19.63;6.57;;;;;;;11.04;31.66;100872.44;4983653;28;20041;-72
2023/05/09 03:11:56;;;;;;;10.73;5.72;;;;;;;11.09;31.57;100882.66;4998719;28;20072;-73
2023/05/09 03:14:22;;;;;;;16.73;6.82;;;;;;;11.17;31.80;100880.22;4982557;28;20468;-72
2023/05/09 03:16:48;;;;;;;15.10;5.85;;;;;;;11.24;31.59;100881.38;4998959;28;20049;-72
2023/05/09 03:19:22;;;;;;;13.85;5.72;;;;;;;11.27;31.38;100886.44;5014992;28;20474;-72
2023/05/09 03:21:48;;;;;;;16.30;5.97;;;;;;;11.29;31.30;100887.13;4982954;28;20396;-71
2023/05/09 03:24:19;;;;;;;14.10;6.05;;;;;;;11.33;31.65;100888.56;4999192;28;20041;-71
2023/05/09 03:26:45;;;;;;;24.67;6.45;;;;;;;11.36;31.65;100889.13;4996299;28;20057;-71
2023/05/09 03:29:11;;;;;;;19.48;7.40;;;;;;;11.43;32.40;100889.44;5018296;28;20060;-72
2023/05/09 03:31:38;;;;;;;17.88;7.40;;;;;;;11.46;32.17;100889.16;5021399;28;20052;-71
2023/05/09 03:34:04;;;;;;;17.55;6.43;;;;;;;11.52;32.18;100889.47;5021531;28;20110;-70
2023/05/09 03:36:31;;;;;;;27.05;7.57;;;;;;;11.54;31.64;100894.69;5038099;28;20449;-70
2023/05/09 03:39:00;;;;;;;24.90;7.15;;;;;;;11.73;32.06;100892.13;5021654;28;20122;-72
2023/05/09 03:41:26;;;;;;;28.23;7.30;;;;;;;11.63;32.21;100888.56;5021314;28;20056;-71
2023/05/09 03:43:53;;;;;;;23.13;8.57;;;;;;;11.69;32.43;100896.03;5021737;28;20214;-71
2023/05/09 03:46:19;;;;;;;22.58;8.52;;;;;;;11.74;32.78;100894.66;5037942;28;20139;-72
2023/05/09 03:48:47;;;;;;;21.60;7.50;;;;;;;11.79;32.82;100900.41;5038001;28;20048;-71
2023/05/09 03:51:14;;;;;;;14.75;7.18;;;;;;;11.82;32.32;100893.97;5037580;28;20048;-72
2023/05/09 03:53:45;;;;;;;20.52;7.57;;;;;;;12.13;32.85;100892.09;5037526;28;20044;-72
2023/05/09 03:56:13;;;;;;;21.17;8.23;;;;;;;11.95;33.04;100899.06;5037518;28;20051;-71
2023/05/09 03:58:45;;;;;;;15.15;7.72;;;;;;;11.99;32.96;100898.66;5040490;28;20081;-72
2023/05/09 04:01:11;;;;;;;30.65;9.65;;;;;;;12.05;32.99;100903.44;5041883;28;20493;-72
2023/05/09 04:03:38;;;;;;;26.25;8.90;;;;;;;12.09;33.09;100898.66;5042044;28;20394;-71
2023/05/09 04:06:05;;;;;;;15.85;7.90;;;;;;;12.25;32.83;100896.31;5058172;28;20564;-71
2023/05/09 04:08:36;;;;;;;23.85;8.20;;;;;;;12.20;32.83;100902.06;5059802;28;20515;-71
2023/05/09 04:11:04;;;;;;;18.45;8.75;;;;;;;12.41;32.67;100902.78;5042190;28;20039;-72
2023/05/09 04:13:32;;;;;;;19.45;8.40;;;;;;;12.52;32.53;100912.44;5042038;28;20093;-72
2023/05/09 04:16:02;;;;;;;18.48;7.93;;;;;;;12.39;32.34;100902.09;5058535;28;20134;-71
2023/05/09 04:18:31;;;;;;;18.05;7.40;;;;;;;12.48;32.37;100911.06;5058514;28;20478;-72
2023/05/09 04:20:59;;;;;;;23.73;8.25;;;;;;;12.78;32.06;100909.09;5041617;28;20050;-72
2023/05/09 04:23:25;;;;;;;18.85;7.63;;;;;;;12.61;31.87;100906.31;5074806;28;20158;-73
2023/05/09 04:25:53;;;;;;;18.27;7.03;;;;;;;12.71;31.77;100907.13;5017597;28;20053;-71
2023/05/09 04:28:19;;;;;;;29.58;8.90;;;;;;;12.81;31.54;100911.47;4985194;28;20044;-73
2023/05/09 04:30:45;;;;;;;17.00;7.65;;;;;;;12.90;31.45;100918.63;5000984;28;20471;-72
2023/05/09 04:33:12;;;;;;;17.30;7.47;;;;;;;13.00;31.26;100915.97;5000987;28;20045;-73
2023/05/09 04:35:38;;;;;;;22.67;8.02;;;;;;;13.10;31.30;100916.84;5000363;28;20064;-72
2023/05/09 04:38:04;;;;;;;19.13;8.45;;;;;;;13.21;31.37;100921.97;5000561;28;20197;-73
2023/05/09 04:40:30;;;;;;;14.25;7.05;;;;;;;13.38;31.15;100914.09;4984447;28;20059;-74
2023/05/09 04:42:59;;;;;;;22.88;8.20;;;;;;;13.35;31.49;100919.72;4985281;28;20056;-72
2023/05/09 04:45:28;;;;;;;20.70;7.30;;;;;;;13.44;30.79;100912.66;4984968;28;20529;-71
2023/05/09 04:47:56;;;;;;;16.42;6.32;;;;;;;13.48;30.83;100912.22;4984702;28;20068;-70
2023/05/09 04:50:23;;;;;;;16.45;6.40;;;;;;;13.82;30.10;100923.19;5000676;28;20126;-73
2023/05/09 04:52:49;;;;;;;18.67;7.32;;;;;;;13.62;30.41;100918.06;4984587;28;20064;-72
2023/05/09 04:55:16;;;;;;;25.45;6.70;;;;;;;13.75;30.05;100918.56;5013397;28;20054;-72
2023/05/09 04:57:46;;;;;;;15.00;6.47;;;;;;;13.85;29.61;100927.41;5032772;28;20143;-72
2023/05/09 05:00:12;;;;;;;15.25;6.07;;;;;;;14.04;29.26;100919.28;5016489;28;20045;-71
2023/05/09 05:02:39;;;;;;;14.20;6.45;;;;;;;14.01;29.25;100920.41;4984336;28;20052;-72
2023/05/09 05:05:05;;;;;;;13.48;5.72;;;;;;;14.18;29.00;100921.44;4941851;28;20145;-71
2023/05/09 05:07:35;;;;;;;12.77;5.53;;;;;;;14.20;28.35;100922.13;4958894;28;20117;-70
2023/05/09 05:10:01;;;;;;;13.77;5.50;;;;;;;14.26;28.02;100924.25;4958185;28;20058;-74
2023/05/09 05:12:31;;;;;;;14.30;4.43;;;;;;;14.48;27.32;100926.50;4958247;28;20049;-73
2023/05/09 05:14:57;;;;;;;13.07;5.10;;;;;;;14.49;27.34;100923.66;4942093;28;20054;-73
2023/05/09 05:17:24;;;;;;;13.43;5.53;;;;;;;14.60;27.56;100931.47;4974566;28;20153;-74
2023/05/09 05:19:50;;;;;;;21.38;6.15;;;;;;;14.76;28.16;100922.75;4942383;28;20054;-74
2023/05/09 05:22:17;;;;;;;20.52;6.70;;;;;;;14.80;28.24;100919.63;4942128;28;20054;-74
2023/05/09 05:24:45;;;;;;;18.00;6.93;;;;;;;14.89;28.29;100920.53;4958091;28;20054;-71
2023/05/09 05:27:13;;;;;;;18.20;6.30;;;;;;;15.15;27.99;100924.94;4992637;28;20071;-72
2023/05/09 05:29:40;;;;;;;16.48;5.55;;;;;;;15.11;27.50;100930.75;4980599;28;20053;-72
2023/05/09 05:32:09;;;;;;;13.02;5.45;;;;;;;15.47;27.06;100926.19;5014507;28;20049;-72
2023/05/09 05:34:35;;;;;;;11.20;3.80;;;;;;;15.34;26.16;100931.06;5032603;28;20155;-72
2023/05/09 05:37:08;;;;;;;5.68;3.10;;;;;;;15.80;24.60;100928.03;5000365;28;20052;-73
2023/05/09 05:39:50;;;;;;;7.55;2.97;;;;;;;15.87;24.05;100919.19;5000292;28;20056;-72
2023/05/09 05:42:20;;;;;;;9.55;2.90;;;;;;;15.98;23.74;100924.25;4981686;28;20110;-73
2023/05/09 05:44:47;;;;;;;8.18;2.42;;;;;;;15.82;23.35;100920.69;5037167;28;20093;-72
2023/05/09 05:47:14;;;;;;;8.48;2.63;;;;;;;15.96;22.92;100912.84;5037529;28;20102;-72
2023/05/09 05:49:43;;;;;;;5.68;2.55;;;;;;;16.22;22.77;100916.28;5037823;28;20059;-72
2023/05/09 05:52:40;;;;;;;7.07;2.60;;;;;;;16.66;22.39;100917.78;5037492;28;20064;-73
2023/05/09 05:55:10;;;;;;;7.22;2.15;;;;;;;16.25;22.38;100913.28;5037617;28;20097;-72
2023/05/09 05:57:39;;;;;;;11.10;2.70;;;;;;;16.62;21.76;100913.72;5053763;28;20074;-73
2023/05/09 06:00:13;;;;;;;;;;;;;;;17.01;21.24;100913.91;5001283;28;20068;-72
2023/05/09 06:02:50;;;;;;;;;;;;;;;17.23;21.12;100915.09;5018569;28;19920;-72
2023/05/09 06:05:23;;;;;;;3.67;1.90;;;;;;;16.90;21.28;100908.06;5000495;28;19920;-71
2023/05/09 06:07:50;;;;;;;8.27;1.90;;;;;;;17.11;20.89;100908.38;5012667;28;20115;-73
2023/05/09 06:10:16;;;;;;;7.32;1.95;;;;;;;17.34;20.49;100909.38;4996222;28;20459;-74
2023/05/09 06:12:43;;;;;;;10.40;2.08;;;;;;;17.56;20.15;100908.69;4999399;28;20053;-73
2023/05/09 06:15:09;;;;;;;7.90;1.98;;;;;;;17.84;20.11;100915.28;5000083;28;20092;-74
2023/05/09 06:17:40;;;;;;;9.25;2.03;;;;;;;18.12;19.99;100908.47;4984308;28;20148;-74
2023/05/09 06:20:06;;;;;;;11.75;2.15;;;;;;;18.19;19.85;100904.03;5001261;28;20045;-72
2023/05/09 06:22:33;;;;;;;9.00;2.10;;;;;;;18.28;19.21;100900.31;5001367;28;20054;-73
2023/05/09 06:24:59;;;;;;;5.03;1.95;;;;;;;18.38;18.97;100891.03;4983976;28;20116;-73
2023/05/09 06:27:25;;;;;;;5.60;1.85;;;;;;;18.62;18.90;100899.97;5009476;28;20081;-72
2023/05/09 06:29:54;;;;;;;4.00;1.50;;;;;;;18.93;18.47;100901.53;4960945;28;20512;-70
2023/05/09 06:32:20;;;;;;;5.00;1.52;;;;;;;18.69;17.91;100900.91;5015973;28;20049;-72
2023/05/09 06:34:47;;;;;;;3.08;1.27;;;;;;;18.73;17.76;100886.91;4944699;28;20516;-71
2023/05/09 06:37:13;;;;;;;5.88;1.40;;;;;;;18.79;17.69;100885.38;4976619;28;20054;-71
2023/05/09 06:39:40;;;;;;;3.55;1.98;;;;;;;19.14;17.71;100892.78;4979827;28;20056;-73
2023/05/09 06:42:08;;;;;;;5.88;2.13;;;;;;;19.34;17.92;100897.47;4977089;28;20049;-74
2023/05/09 06:44:37;;;;;;;10.23;3.17;;;;;;;19.19;18.14;100888.53;4998472;28;20045;-72
2023/05/09 06:47:03;;;;;;;6.90;3.22;;;;;;;19.39;17.72;100889.69;4997917;28;20431;-72
2023/05/09 06:49:29;;;;;;;12.75;3.47;;;;;;;19.61;17.79;100893.34;4982014;28;20053;-70
2023/05/09 06:51:55;;;;;;;4.65;2.20;;;;;;;19.74;17.69;100885.44;4975722;28;20404;-72
2023/05/09 06:54:22;;;;;;;4.97;1.73;;;;;;;19.81;17.32;100889.06;4991942;28;20084;-72
2023/05/09 06:56:49;;;;;;;4.85;2.10;;;;;;;20.06;17.20;100866.16;4985764;28;20066;-72
2023/05/09 06:59:16;;;;;;;4.03;1.70;;;;;;;20.08;16.85;100874.91;4978016;28;20049;-71
2023/05/09 07:01:42;;;;;;;4.72;2.00;;;;;;;20.31;17.01;100878.31;4995085;28;20030;-73
2023/05/09 07:04:09;;;;;;;8.35;2.40;;;;;;;20.30;17.09;100875.78;4992623;28;20778;-74
2023/05/09 07:06:38;;;;;;;11.35;2.67;;;;;;;20.68;16.88;100877.25;5026996;28;20108;-79
2023/05/09 07:09:37;;;;;;;10.25;2.50;;;;;;;21.00;16.41;100876.72;5055932;28;20051;-76
2023/05/09 07:12:03;;;;;;;7.68;2.78;;;;;;;20.49;16.66;100867.06;5069813;28;20067;-75
2023/05/09 07:14:29;;;;;;;4.63;2.15;;;;;;;20.24;16.68;100872.00;5018450;28;20125;-73
2023/05/09 07:16:57;;;;;;;5.07;2.33;;;;;;;20.24;17.07;100873.84;5053029;28;20052;-69
2023/05/09 07:27:39;;;;;;;4.47;1.75;;;;;;;19.97;16.58;100870.78;5082546;28;20121;-72
2023/05/09 07:30:06;;;;;;;4.72;2.45;;;;;;;20.26;16.24;100869.09;5035760;28;20067;-76
2023/05/09 07:32:33;;;;;;;6.00;1.63;;;;;;;22.04;14.55;100863.03;5018848;28;20052;-74
2023/05/09 07:35:00;;;;;;;3.75;1.40;;;;;;;23.03;14.07;100866.59;5052369;28;20330;-73
2023/05/09 07:37:25;;;;;;;8.52;1.70;;;;;;;23.31;13.82;100871.00;5035459;28;20063;-72
2023/05/09 07:39:51;;;;;;;6.80;1.55;;;;;;;23.09;13.78;100871.16;5018529;28;20067;-71
2023/05/09 07:42:17;;;;;;;6.88;1.70;;;;;;;22.67;14.17;100866.16;5002463;28;20053;-71
2023/05/09 07:44:43;;;;;;;2.55;1.60;;;;;;;22.35;14.58;100858.78;5035120;28;20036;-71
2023/05/09 07:47:09;;;;;;;10.73;2.17;;;;;;;23.04;14.12;100864.72;5035005;28;20063;-72
2023/05/09 07:49:34;;;;;;;4.20;2.05;;;;;;;24.36;13.26;100864.16;5002130;28;20080;-74
2023/05/09 07:52:00;;;;;;;6.57;2.25;;;;;;;24.94;12.98;100857.50;5038805;28;20182;-75
2023/05/09 07:54:27;;;;;;;7.47;2.58;;;;;;;25.49;12.24;100851.19;5001111;28;20467;-74
2023/05/09 07:56:54;;;;;;;11.10;2.40;;;;;;;25.69;12.14;100854.53;5034480;28;20032;-78
2023/05/09 07:59:20;;;;;;;9.38;2.80;;;;;;;26.05;11.98;100845.50;5001196;28;20409;-75
2023/05/09 08:01:46;;;;;;;5.53;2.25;;;;;;;26.26;11.57;100840.41;5000598;28;20048;-77
2023/05/09 08:04:13;;;;;;;8.23;2.22;;;;;;;26.33;11.77;100838.44;5041996;28;20062;-76
2023/05/09 08:06:39;;;;;;;8.15;2.53;;;;;;;25.81;11.79;100840.97;5037383;28;20048;-78
2023/05/09 08:09:07;;;;;;;3.97;1.90;;;;;;;25.51;11.90;100831.91;5063330;28;20131;-81
2023/05/09 08:11:33;;;;;;;8.20;2.30;;;;;;;24.75;12.42;100829.47;5018357;28;20048;-76
2023/05/09 08:13:59;;;;;;;3.10;1.80;;;;;;;24.22;12.79;100828.13;5033901;28;20072;-77
2023/05/09 08:16:26;;;;;;;2.92;1.80;;;;;;;23.83;12.60;100831.00;5007156;28;20409;-75
2023/05/09 08:18:54;;;;;;;6.47;1.77;;;;;;;23.44;12.96;100833.00;5049735;28;20047;-76
2023/05/09 08:21:20;;;;;;;4.47;1.63;;;;;;;23.42;13.48;100821.53;5032739;28;20431;-77
2023/05/09 08:23:46;;;;;;;6.30;1.70;;;;;;;23.13;13.66;100825.50;5033064;28;20047;-77
2023/05/09 08:26:12;;;;;;;6.10;1.88;;;;;;;23.05;13.18;100812.16;5032823;28;20048;-77
2023/05/09 08:28:39;;;;;;;5.38;1.90;;;;;;;23.14;13.32;100817.16;5041525;28;20044;-75
2023/05/09 08:31:04;;;;;;;5.85;1.73;;;;;;;23.16;13.34;100809.66;5033096;28;20376;-80
2023/05/09 08:33:32;;;;;;;2.55;1.90;;;;;;;23.57;13.05;100812.09;5032343;28;20043;-74
2023/05/09 08:35:59;;;;;;;2.17;1.55;;;;;;;23.41;13.19;100807.16;5024927;28;20041;-77
2023/05/09 08:38:27;;;;;;;5.55;1.67;;;;;;;23.71;13.17;100799.34;5018533;28;20045;-74
2023/05/09 08:40:59;;;;;;;9.98;2.10;;;;;;;23.84;12.96;100801.97;5024619;28;20048;-73
2023/05/09 08:43:29;;;;;;;6.78;2.40;;;;;;;23.87;12.76;100796.94;5026497;28;20051;-71
2023/05/09 08:45:58;;;;;;;10.10;1.77;;;;;;;24.20;12.44;100802.25;5029278;28;20079;-72
2023/05/09 08:48:27;;;;;;;3.35;1.40;;;;;;;24.63;12.02;100803.19;4996465;28;20053;-73
2023/05/09 08:50:56;;;;;;;8.07;2.10;;;;;;;26.32;11.16;100797.81;4997113;28;20052;-73
2023/05/09 08:53:22;;;;;;;2.33;2.00;;;;;;;29.00;9.58;100795.97;5028857;28;20056;-77
2023/05/09 08:55:58;;;;;;;3.05;1.80;;;;;;;32.34;7.80;100792.94;5027081;28;20076;-73
2023/05/09 08:58:24;;;;;;;6.20;1.83;;;;;;;33.06;7.20;100792.75;5013594;28;20052;-72
2023/05/09 09:00:50;;;;;;;7.25;1.88;;;;;;;32.85;6.98;100780.06;5013865;28;20041;-73
2023/05/09 09:03:17;;;;;;;5.32;2.17;;;;;;;34.51;6.36;100789.41;5013408;28;20053;-73
2023/05/09 09:05:44;;;;;;;3.78;1.92;;;;;;;36.73;5.66;100778.19;4979949;28;20047;-72
2023/05/09 09:08:10;;;;;;;5.18;1.80;;;;;;;38.89;4.58;100790.22;5010107;28;20149;-74
2023/05/09 09:10:42;;;;;;;3.58;1.80;;;;;;;41.03;3.83;100778.41;4970880;28;20064;-73
2023/05/09 09:13:35;;;;;;;3.20;1.52;;;;;;;42.07;3.09;100776.81;4923913;28;20178;-74
2023/05/09 09:16:01;;;;;;;2.63;1.50;;;;;;;41.78;3.04;100762.84;4990839;28;20063;-75
2023/05/09 09:18:29;;;;;;;4.53;2.22;;;;;;;42.34;3.18;100765.09;4992364;28;20393;-76
2023/05/09 09:21:08;;;;;;;7.18;2.10;;;;;;;42.01;2.95;100758.63;4994090;28;20052;-73
2023/05/09 09:23:36;;;;;;;4.03;2.03;;;;;;;41.24;3.08;100754.25;4977707;28;20053;-74
2023/05/09 09:26:03;;;;;;;6.18;2.25;;;;;;;41.98;2.97;100748.94;4978046;28;20101;-75
2023/05/09 09:28:30;;;;;;;6.53;1.50;;;;;;;43.24;2.53;100750.03;4973224;28;20141;-74
2023/05/09 09:30:56;;;;;;;4.07;2.00;;;;;;;42.06;2.79;100747.25;4948627;28;20154;-75
2023/05/09 09:33:23;;;;;;;5.13;1.50;;;;;;;39.88;2.96;100743.25;4957934;28;20066;-74
2023/05/09 09:35:53;;;;;;;4.72;1.27;;;;;;;38.10;3.88;100741.91;4926392;28;20051;-75
2023/05/09 09:38:21;;;;;;;4.95;1.50;;;;;;;36.35;4.52;100725.94;4949078;28;20051;-74
2023/05/09 09:40:58;;;;;;;4.65;1.60;;;;;;;36.20;4.62;100731.72;4953423;28;20051;-74
2023/05/09 09:43:28;;;;;;;5.68;1.85;;;;;;;36.41;4.37;100727.50;4967944;28;20051;-74
2023/05/09 09:45:55;;;;;;;3.58;1.90;;;;;;;38.15;4.01;100729.88;4945975;28;20063;-72
2023/05/09 09:48:25;;;;;;;2.17;1.70;;;;;;;39.87;3.14;100745.19;4929553;29;20055;-71
2023/05/09 09:50:55;;;;;;;5.10;1.85;;;;;;;39.10;3.48;100723.84;4891736;29;20059;-72
2023/05/09 09:53:22;;;;;;;2.75;1.65;;;;;;;38.78;3.64;100736.88;4876603;29;20739;-72
2023/05/09 09:55:50;;;;;;;6.57;2.20;;;;;;;40.36;3.43;100738.38;4913578;29;20048;-74
2023/05/09 09:58:23;;;;;;;4.50;2.08;;;;;;;42.10;2.68;100742.63;4927208;29;20056;-74
2023/05/09 10:01:12;;;;;;;3.17;2.20;;;;;;;43.85;2.00;100734.84;4948609;28;20078;-74
2023/05/09 10:03:40;;;;;;;6.32;1.75;;;;;;;44.30;1.74;100735.44;4954891;28;20050;-74
2023/05/09 10:06:17;;;;;;;2.35;1.38;;;;;;;45.04;1.43;100728.31;4922303;28;20154;-78
2023/05/09 10:08:46;;;;;;;3.45;1.55;;;;;;;44.00;1.67;100724.91;4923593;28;20057;-74
2023/05/09 10:11:12;;;;;;;4.32;1.10;;;;;;;43.66;1.47;100719.84;4955107;28;20054;-73
2023/05/09 10:13:39;;;;;;;3.72;1.42;;;;;;;41.72;2.19;100711.97;4955290;28;20078;-73
2023/05/09 10:16:11;;;;;;;3.38;1.60;;;;;;;41.43;2.28;100710.03;4925355;28;20058;-74
2023/05/09 10:18:41;;;;;;;4.53;2.05;;;;;;;42.51;2.21;100709.88;5000464;28;20052;-71
2023/05/09 10:21:11;;;;;;;3.85;1.95;;;;;;;44.01;1.58;100716.13;5008127;28;20043;-71
2023/05/09 10:23:42;;;;;;;6.28;1.92;;;;;;;44.88;1.32;100707.81;5048231;28;20566;-70
2023/05/09 10:26:29;;;;;;;6.43;1.90;;;;;;;45.02;1.31;100702.59;5072947;28;20031;-71
2023/05/09 10:28:57;;;;;;;2.53;1.95;;;;;;;44.94;1.33;100695.16;5071155;28;20048;-69
2023/05/09 10:31:32;;;;;;;2.28;1.80;;;;;;;46.29;1.17;100704.38;5073449;28;20048;-70
2023/05/09 10:34:02;;;;;;;3.25;1.48;;;;;;;47.24;0.51;100698.53;5056917;28;20040;-72
2023/05/09 10:36:29;;;;;;;4.63;1.70;;;;;;;47.23;0.38;100694.13;5039661;28;20107;-73
2023/05/09 10:38:56;;;;;;;3.38;1.40;;;;;;;46.47;0.90;100693.50;5024518;28;20061;-72
2023/05/09 10:41:22;;;;;;;4.22;1.40;;;;;;;45.85;1.20;100686.19;5024579;28;20051;-72
2023/05/09 10:43:50;;;;;;;8.50;1.60;;;;;;;45.21;1.14;100683.84;4993260;28;20219;-70
2023/05/09 10:46:18;;;;;;;2.15;1.30;;;;;;;42.98;1.91;100677.59;5025144;28;20475;-71
2023/05/09 10:48:44;;;;;;;5.30;1.60;;;;;;;40.60;2.31;100671.78;5032006;28;20701;-72
2023/05/09 10:51:11;;;;;;;2.05;1.40;;;;;;;38.52;3.18;100671.22;4993324;28;20036;-71
2023/05/09 10:53:43;;;;;;;2.83;1.60;;;;;;;36.74;3.92;100646.06;5024450;28;20673;-72
2023/05/09 10:56:09;;;;;;;5.57;1.70;;;;;;;34.95;4.58;100659.56;5023790;28;20060;-74
2023/05/09 10:58:39;;;;;;;4.90;1.70;;;;;;;33.57;5.29;100648.25;5024478;28;20134;-69
2023/05/09 11:01:05;;;;;;;5.70;1.60;;;;;;;32.18;5.74;100640.88;5025407;28;20143;-71
2023/05/09 11:03:57;;;;;;;4.72;2.03;;;;;;;31.37;6.23;100633.56;5004367;28;20091;-70
2023/05/09 11:06:52;;;;;;;3.88;1.70;;;;;;;30.45;6.69;100640.72;4987271;28;20052;-70
2023/05/09 11:09:32;;;;;;;2.80;1.70;;;;;;;29.52;6.99;100635.75;5006395;28;20143;-69
2023/05/09 11:12:08;;;;;;;2.90;2.00;;;;;;;28.91;7.20;100630.56;4983452;28;20050;-69
2023/05/09 11:14:34;;;;;;;5.95;1.70;;;;;;;28.10;7.51;100625.78;4957150;28;20240;-69
2023/05/09 11:17:36;;;;;;;5.43;1.80;;;;;;;27.90;7.96;100617.25;4974902;28;20054;-72
2023/05/09 11:20:06;;;;;;;6.50;2.20;;;;;;;27.34;8.36;100620.03;4917515;29;20054;-70
2023/05/09 11:22:49;;;;;;;2.65;2.00;;;;;;;26.82;8.57;100616.44;4945006;29;20078;-70
2023/05/09 11:25:18;;;;;;;7.38;3.47;;;;;;;26.41;8.81;100617.41;4901900;29;20047;-69
2023/05/09 11:27:50;;;;;;;8.60;3.85;;;;;;;26.44;9.09;100607.94;4948056;29;20051;-70
2023/05/09 11:30:17;;;;;;;;;;;;;;;26.45;9.40;100609.56;4918413;29;20132;-69
2023/05/09 11:32:57;;;;;;;5.22;3.40;;;;;;;26.03;9.54;100611.56;4919114;29;19937;-69
2023/05/09 11:35:27;;;;;;;6.75;2.40;;;;;;;25.72;9.47;100611.00;4912040;28;20148;-69
2023/05/09 11:38:05;;;;;;;8.02;1.88;;;;;;;25.53;9.53;100599.34;4992681;28;20064;-69
2023/05/09 11:40:33;;;;;;;7.07;3.50;;;;;;;25.19;10.06;100605.44;4956784;28;20046;-70
2023/05/09 11:43:00;;;;;;;7.47;3.70;;;;;;;25.05;10.01;100595.81;4970943;28;20093;-70